Norman, Nebraska
Current Conditions -  °F | °C
As of 1:53 AM on Friday 24 Oct 2014 (Local Time) from KHSI Reporting Station
Haze Haze  
Wind Chill: 57°   Ceiling: Unl
Heat Index: 57°   Visibility: 5mi
Dew Point: 54°   Wind: 8mph
Humidity: 89%   Direction: 190°S
Pressure: 29.99"   Gusts: NA
Location:  40.48°N, 98.79°W
Report Text: KHSI 240653Z AUTO 19007KT 5SM BR CLR 14/12 A2999 RMK AO2 SLP152 T01390122
Loading
Personal Weather Stations






























Interactive Weather Map
Tropical Storm Tracking
New forecast layout! Learn more

10-Day Weather Forecast

Advertisements
Track Severe Weather on mobile